createdAt,value
2022-10-20T00:00:56.304Z,4.82
2022-10-20T00:03:59.300Z,4.57
2022-10-20T00:07:01.864Z,6.78
2022-10-20T00:10:05.274Z,5.37
2022-10-20T00:13:07.993Z,4.20
2022-10-20T00:16:11.199Z,6.57
2022-10-20T00:19:13.848Z,5.20
2022-10-20T00:22:16.876Z,5.78
2022-10-20T00:25:19.293Z,5.75
2022-10-20T00:28:22.036Z,6.10
2022-10-20T00:31:25.719Z,4.75
2022-10-20T00:34:28.559Z,4.62
2022-10-20T00:37:31.165Z,5.45
2022-10-20T00:40:35.094Z,5.15
2022-10-20T00:43:49.472Z,7.03
2022-10-20T00:46:52.701Z,5.15
2022-10-20T00:49:55.994Z,5.18
2022-10-20T00:52:59.784Z,5.47
2022-10-20T00:56:02.622Z,5.95
2022-10-20T00:59:05.594Z,3.87
2022-10-20T01:02:09.077Z,5.25
2022-10-20T01:05:13.229Z,5.70
2022-10-20T01:08:15.829Z,5.60
2022-10-20T01:11:21.730Z,6.68
2022-10-20T01:14:39.004Z,6.10
2022-10-20T01:17:57.423Z,4.37
2022-10-20T01:21:08.101Z,7.70
2022-10-20T01:24:17.027Z,7.72
2022-10-20T01:27:34.661Z,6.37
2022-10-20T01:30:46.046Z,4.63
2022-10-20T01:34:10.418Z,5.07
2022-10-20T01:37:49.077Z,6.40
2022-10-20T01:41:02.882Z,4.65
2022-10-20T01:44:09.409Z,5.80
2022-10-20T01:47:12.248Z,4.33
2022-10-20T01:50:17.075Z,5.37
2022-10-20T01:53:20.303Z,5.20
2022-10-20T01:56:47.270Z,4.40
2022-10-20T02:00:00.725Z,3.87
2022-10-20T02:03:04.557Z,4.67
2022-10-20T02:06:19.539Z,3.97
2022-10-20T02:09:48.048Z,4.20
2022-10-20T02:12:55.473Z,5.25
2022-10-20T02:16:00.885Z,5.00
2022-10-20T02:19:06.002Z,4.77
2022-10-20T02:22:11.218Z,6.90
2022-10-20T02:25:14.314Z,4.78
2022-10-20T02:28:17.711Z,4.90
2022-10-20T02:31:20.983Z,5.03
2022-10-20T02:34:26.271Z,5.03
2022-10-20T02:37:29.163Z,5.82
2022-10-20T02:40:33.354Z,5.70
2022-10-20T02:43:36.427Z,4.15
2022-10-20T02:46:38.963Z,6.62
2022-10-20T02:49:41.856Z,8.17
2022-10-20T02:52:44.486Z,8.75
2022-10-20T02:55:47.484Z,9.70
2022-10-20T02:58:50.369Z,8.38
2022-10-20T03:01:53.439Z,6.20
2022-10-20T03:04:56.003Z,7.60
2022-10-20T03:07:58.824Z,6.12
2022-10-20T03:11:02.981Z,5.55
2022-10-20T03:14:05.843Z,5.12
2022-10-20T03:17:08.865Z,6.50
2022-10-20T03:20:12.110Z,5.53
2022-10-20T03:23:17.816Z,6.32
2022-10-20T03:26:22.909Z,5.72
2022-10-20T03:29:25.365Z,5.90
2022-10-20T03:32:28.274Z,5.57
2022-10-20T03:35:30.816Z,5.17
2022-10-20T03:38:33.729Z,10.35
2022-10-20T03:41:37.373Z,5.15
2022-10-20T03:44:40.595Z,5.45
2022-10-20T03:47:43.042Z,6.55
2022-10-20T03:50:49.243Z,5.43
2022-10-20T03:53:51.718Z,5.32
2022-10-20T03:56:54.520Z,8.13
2022-10-20T03:59:59.351Z,6.57
2022-10-20T04:03:02.229Z,5.00
2022-10-20T04:06:05.224Z,6.33
2022-10-20T04:09:07.911Z,5.50
2022-10-20T04:12:10.784Z,7.05
2022-10-20T04:15:13.717Z,7.12
2022-10-20T04:18:16.615Z,5.93
2022-10-20T04:21:19.294Z,5.70
2022-10-20T04:24:22.156Z,8.77
2022-10-20T04:27:24.801Z,4.40
2022-10-20T04:30:33.355Z,5.85
2022-10-20T04:33:36.137Z,3.97
2022-10-20T04:36:38.921Z,6.27
2022-10-20T04:39:41.472Z,6.90
2022-10-20T04:42:44.370Z,5.18
2022-10-20T04:45:46.875Z,5.47
2022-10-20T04:48:49.655Z,4.95
2022-10-20T04:51:52.225Z,4.53
2022-10-20T04:54:55.031Z,5.15
2022-10-20T04:57:57.678Z,4.35
2022-10-20T05:01:03.518Z,4.50
2022-10-20T05:04:06.138Z,4.10
2022-10-20T05:07:08.988Z,4.03
2022-10-20T05:10:11.934Z,5.93
2022-10-20T05:13:14.716Z,5.07
2022-10-20T05:16:17.723Z,4.43
2022-10-20T05:19:20.626Z,4.28
2022-10-20T05:22:23.155Z,4.60
2022-10-20T05:25:36.200Z,4.75
2022-10-20T05:28:40.397Z,4.50
2022-10-20T05:31:44.063Z,5.62
2022-10-20T05:34:46.758Z,4.35
2022-10-20T05:37:49.611Z,5.10
2022-10-20T05:41:16.997Z,4.35
2022-10-20T05:44:19.848Z,5.20
2022-10-20T05:47:22.472Z,4.30
2022-10-20T05:50:25.732Z,10.85
2022-10-20T05:53:28.311Z,4.93
2022-10-20T05:56:31.891Z,4.40
2022-10-20T05:59:34.500Z,5.18
2022-10-20T06:02:38.022Z,4.00
2022-10-20T06:05:41.220Z,4.68
2022-10-20T06:08:43.869Z,6.97
2022-10-20T06:11:48.172Z,5.65
2022-10-20T06:14:50.700Z,4.70
2022-10-20T06:17:53.612Z,5.07
2022-10-20T06:21:05.753Z,4.35
2022-10-20T06:24:10.024Z,4.13
2022-10-20T06:27:12.628Z,3.80
2022-10-20T06:30:15.803Z,7.12
2022-10-20T06:33:18.352Z,7.30
2022-10-20T06:36:22.472Z,5.65
2022-10-20T06:39:25.511Z,6.27
2022-10-20T06:42:28.741Z,6.05
2022-10-20T06:45:31.274Z,6.62
2022-10-20T06:48:35.170Z,5.97
2022-10-20T06:51:40.824Z,4.37
2022-10-20T06:54:43.820Z,4.73
2022-10-20T06:57:46.349Z,4.43
2022-10-20T07:00:58.641Z,4.95
2022-10-20T07:04:04.027Z,4.05
2022-10-20T07:07:06.914Z,4.80
2022-10-20T07:10:09.641Z,5.33
2022-10-20T07:13:12.611Z,4.78
2022-10-20T07:16:17.906Z,13.23
2022-10-20T07:19:21.187Z,5.30
2022-10-20T07:22:23.791Z,6.07
2022-10-20T07:25:26.659Z,4.47
2022-10-20T07:28:29.712Z,5.87
2022-10-20T07:31:36.319Z,4.22
2022-10-20T07:34:38.825Z,6.00
2022-10-20T07:37:41.757Z,4.60
2022-10-20T07:40:44.422Z,5.13
2022-10-20T07:43:47.419Z,5.60
2022-10-20T07:46:50.273Z,4.12
2022-10-20T07:49:53.266Z,5.57
2022-10-20T07:52:55.832Z,4.62
2022-10-20T07:55:58.701Z,4.40
2022-10-20T07:59:01.664Z,4.93
2022-10-20T08:02:04.856Z,6.12
2022-10-20T08:05:08.888Z,6.82
2022-10-20T08:08:11.719Z,4.57
2022-10-20T08:11:15.540Z,5.93
2022-10-20T08:14:18.269Z,5.32
2022-10-20T08:17:21.103Z,4.30
2022-10-20T08:20:28.738Z,4.05
2022-10-20T08:23:31.714Z,5.15
2022-10-20T08:26:34.852Z,4.60
2022-10-20T08:29:38.101Z,4.50
2022-10-20T08:32:40.763Z,4.15
2022-10-20T08:35:43.687Z,5.65
2022-10-20T08:38:46.286Z,5.28
2022-10-20T08:45:18.838Z,5.47
2022-10-20T08:48:25.042Z,5.15
2022-10-20T08:51:32.619Z,4.72
2022-10-20T08:54:35.587Z,8.88
2022-10-20T08:57:38.561Z,6.27
2022-10-20T09:00:43.996Z,4.78
2022-10-20T09:03:51.418Z,5.60
2022-10-20T09:06:59.495Z,5.25
2022-10-20T09:10:26.877Z,6.00
2022-10-20T09:13:31.849Z,5.50
2022-10-20T09:16:58.557Z,5.00
2022-10-20T09:20:01.993Z,5.70
2022-10-20T09:23:16.679Z,5.75
2022-10-20T09:26:54.120Z,4.37
2022-10-20T09:29:57.521Z,6.40
2022-10-20T09:33:02.214Z,5.05
2022-10-20T09:36:12.902Z,4.32
2022-10-20T09:39:24.904Z,4.87
2022-10-20T09:42:34.430Z,4.50
2022-10-20T09:45:39.756Z,4.90
2022-10-20T09:48:47.915Z,4.80
2022-10-20T09:55:03.949Z,5.43
2022-10-20T09:58:08.108Z,5.70
2022-10-20T10:01:15.858Z,4.40
2022-10-20T10:04:31.032Z,5.25
2022-10-20T10:07:33.578Z,6.25
2022-10-20T10:10:37.906Z,4.53
2022-10-20T10:13:44.529Z,5.87
2022-10-20T10:16:47.385Z,5.97
2022-10-20T10:19:52.556Z,6.28
2022-10-20T10:23:27.285Z,7.12
2022-10-20T10:26:45.554Z,6.28
2022-10-20T10:29:50.921Z,6.70
2022-10-20T10:32:53.792Z,5.47
2022-10-20T10:35:57.403Z,6.03
2022-10-20T10:39:00.419Z,6.03
2022-10-20T10:42:03.429Z,5.25
2022-10-20T10:45:23.682Z,5.75
2022-10-20T10:48:47.930Z,4.57
2022-10-20T10:51:57.523Z,5.50
2022-10-20T10:55:06.612Z,6.37
2022-10-20T10:58:16.049Z,5.20
2022-10-20T11:01:45.120Z,5.03
2022-10-20T11:05:13.975Z,7.07
2022-10-20T11:08:28.879Z,6.18
2022-10-20T11:11:50.471Z,6.12
2022-10-20T11:15:14.346Z,4.68
2022-10-20T11:18:46.223Z,6.93
2022-10-20T11:22:02.018Z,6.43
2022-10-20T11:25:22.693Z,8.52
2022-10-20T11:28:46.776Z,5.22
2022-10-20T11:32:15.880Z,5.07
2022-10-20T11:35:25.034Z,4.40
2022-10-20T11:38:36.236Z,9.23
2022-10-20T11:41:49.749Z,7.12
2022-10-20T11:44:54.394Z,5.30
2022-10-20T11:48:12.573Z,12.07
2022-10-20T11:51:19.747Z,4.55
2022-10-20T11:54:48.884Z,7.17
2022-10-20T11:58:12.814Z,6.85
2022-10-20T12:01:18.888Z,6.40
2022-10-20T12:04:40.903Z,8.55
2022-10-20T12:08:30.288Z,5.07
2022-10-20T12:11:51.888Z,5.83
2022-10-20T12:15:00.349Z,5.60
2022-10-20T12:18:34.726Z,8.57
2022-10-20T12:21:57.885Z,7.35
2022-10-20T12:25:00.626Z,5.87
2022-10-20T12:28:22.584Z,5.00
2022-10-20T12:31:26.120Z,5.35
2022-10-20T12:34:40.132Z,5.90
2022-10-20T12:37:44.975Z,8.25
2022-10-20T12:40:59.116Z,4.50
2022-10-20T12:44:04.672Z,5.13
2022-10-20T12:47:08.335Z,5.62
2022-10-20T12:50:35.177Z,7.12
2022-10-20T12:53:38.267Z,9.27
2022-10-20T12:56:42.109Z,6.10
2022-10-20T12:59:44.820Z,8.40
2022-10-20T13:02:58.809Z,5.22
2022-10-20T13:06:02.113Z,4.53
2022-10-20T13:09:07.709Z,4.32
2022-10-20T13:12:29.033Z,6.22
2022-10-20T13:15:35.161Z,4.90
2022-10-20T13:18:42.763Z,6.07
2022-10-20T13:21:49.427Z,5.57
2022-10-20T13:24:55.959Z,5.57
2022-10-20T13:28:18.258Z,5.95
2022-10-20T13:31:21.056Z,7.40
2022-10-20T13:34:33.942Z,4.70
2022-10-20T13:38:02.967Z,8.48
2022-10-20T13:41:40.904Z,8.10
2022-10-20T13:44:52.920Z,5.85
2022-10-20T13:48:16.831Z,5.67
2022-10-20T13:51:24.743Z,7.72
2022-10-20T13:54:31.827Z,6.12
2022-10-20T13:57:35.653Z,4.47
2022-10-20T14:00:39.695Z,6.47
2022-10-20T14:03:44.591Z,7.50
2022-10-20T14:06:47.269Z,4.05
2022-10-20T14:09:57.257Z,5.53
2022-10-20T14:13:01.188Z,7.03
2022-10-20T14:16:05.939Z,5.03
2022-10-20T14:19:12.855Z,3.80
2022-10-20T14:22:15.562Z,8.68
2022-10-20T14:25:18.204Z,4.50
2022-10-20T14:28:21.312Z,5.12
2022-10-20T14:31:24.966Z,6.32
2022-10-20T14:34:29.451Z,5.50
2022-10-20T14:37:41.092Z,4.90
2022-10-20T14:40:55.566Z,8.55
2022-10-20T14:44:05.098Z,5.12
2022-10-20T14:47:10.906Z,5.20
2022-10-20T14:50:44.389Z,7.87
2022-10-20T14:53:47.385Z,6.53
2022-10-20T14:56:52.360Z,4.43
2022-10-20T15:00:03.932Z,7.12
2022-10-20T15:03:09.192Z,5.72
2022-10-20T15:06:17.671Z,7.63
2022-10-20T15:09:30.489Z,5.87
2022-10-20T15:12:39.392Z,5.78
2022-10-20T15:15:42.327Z,6.37
2022-10-20T15:18:46.474Z,6.45
2022-10-20T15:21:50.544Z,4.83
2022-10-20T15:24:53.490Z,8.15
2022-10-20T15:27:56.525Z,4.75
2022-10-20T15:31:04.315Z,5.87
2022-10-20T15:34:09.871Z,7.30
2022-10-20T15:37:12.783Z,6.77
2022-10-20T15:40:21.051Z,6.32
2022-10-20T15:43:24.024Z,8.05
2022-10-20T15:46:26.744Z,8.32
2022-10-20T15:49:29.601Z,5.78
2022-10-20T15:52:32.470Z,6.30
2022-10-20T15:55:37.491Z,5.97
2022-10-20T15:58:40.144Z,8.25
2022-10-20T16:01:43.058Z,10.38
2022-10-20T16:04:45.964Z,9.50
2022-10-20T16:07:48.521Z,7.37
2022-10-20T16:10:57.827Z,7.70
2022-10-20T16:14:20.204Z,6.55
2022-10-20T16:17:42.936Z,7.80
2022-10-20T16:21:06.312Z,5.43
2022-10-20T16:24:28.997Z,5.80
2022-10-20T16:27:51.354Z,5.45
2022-10-20T16:31:16.083Z,6.22
2022-10-20T16:34:18.597Z,6.68
2022-10-20T16:37:21.930Z,7.15
2022-10-20T16:40:24.548Z,4.80
2022-10-20T16:43:28.048Z,4.90
2022-10-20T16:46:30.628Z,4.90
2022-10-20T16:49:34.327Z,5.47
2022-10-20T16:52:37.117Z,5.50
2022-10-20T16:55:40.088Z,6.87
2022-10-20T16:58:42.653Z,8.80
2022-10-20T17:01:45.851Z,9.00
2022-10-20T17:04:49.779Z,11.05
2022-10-20T17:07:52.668Z,11.30
2022-10-20T17:10:57.376Z,11.97
2022-10-20T17:14:00.591Z,13.77
2022-10-20T17:17:03.380Z,13.80
2022-10-20T17:20:06.965Z,9.20
2022-10-20T17:23:09.626Z,9.80
2022-10-20T17:26:18.424Z,8.33
2022-10-20T17:29:25.151Z,8.05
2022-10-20T17:32:29.007Z,8.85
2022-10-20T17:35:31.938Z,11.48
2022-10-20T17:38:35.514Z,9.20
2022-10-20T17:41:38.349Z,9.40
2022-10-20T17:44:41.342Z,10.27
2022-10-20T17:47:44.148Z,9.48
2022-10-20T17:50:47.346Z,8.13
2022-10-20T17:53:51.729Z,9.10
2022-10-20T17:56:54.911Z,7.27
2022-10-20T18:00:00.448Z,7.53
2022-10-20T18:03:08.412Z,8.98
2022-10-20T18:06:17.448Z,7.72
2022-10-20T18:09:20.290Z,7.68
2022-10-20T18:12:23.309Z,7.33
2022-10-20T18:15:26.154Z,6.57
2022-10-20T18:18:29.176Z,5.25
2022-10-20T18:21:32.739Z,6.85
2022-10-20T18:24:37.208Z,5.97
2022-10-20T18:27:40.048Z,7.53
2022-10-20T18:30:43.609Z,6.10
2022-10-20T18:33:47.256Z,8.38
2022-10-20T18:36:51.289Z,7.55
2022-10-20T18:39:54.052Z,8.40
2022-10-20T18:42:56.902Z,5.97
2022-10-20T18:46:01.203Z,5.90
2022-10-20T18:49:06.741Z,5.97
2022-10-20T18:52:09.576Z,6.28
2022-10-20T18:55:12.874Z,6.87
2022-10-20T18:58:15.797Z,6.20
2022-10-20T19:01:21.269Z,7.70
2022-10-20T19:04:24.216Z,7.03
2022-10-20T19:07:27.070Z,7.37
2022-10-20T19:10:29.960Z,7.80
2022-10-20T19:13:35.954Z,6.37
2022-10-20T19:16:39.935Z,8.13
2022-10-20T19:19:44.645Z,5.55
2022-10-20T19:22:47.448Z,5.07
2022-10-20T19:26:13.629Z,7.62
2022-10-20T19:29:18.214Z,9.17
2022-10-20T19:32:22.689Z,5.90
2022-10-20T19:35:25.752Z,6.07
2022-10-20T19:38:28.963Z,6.45
2022-10-20T19:41:34.502Z,7.53
2022-10-20T19:44:37.530Z,9.63
2022-10-20T19:47:40.485Z,8.07
2022-10-20T19:50:43.550Z,6.25
2022-10-20T19:53:47.704Z,6.03
2022-10-20T19:56:50.973Z,6.55
2022-10-20T19:59:54.890Z,7.00
2022-10-20T20:02:57.851Z,9.27
2022-10-20T20:06:03.243Z,6.43
2022-10-20T20:09:08.217Z,7.70
2022-10-20T20:12:11.239Z,7.68
2022-10-20T20:15:14.097Z,8.40
2022-10-20T20:18:17.680Z,14.02
2022-10-20T20:21:21.424Z,11.65
2022-10-20T20:24:24.518Z,12.52
2022-10-20T20:27:27.407Z,12.95
2022-10-20T20:30:30.489Z,11.00
2022-10-20T20:33:34.029Z,12.35
2022-10-20T20:36:37.078Z,19.67
2022-10-20T20:39:39.776Z,11.25
2022-10-20T20:42:42.706Z,10.95
2022-10-20T20:45:45.351Z,9.60
2022-10-20T20:48:48.369Z,7.60
2022-10-20T20:51:51.016Z,9.55
2022-10-20T20:54:54.051Z,9.52
2022-10-20T20:57:56.549Z,11.18
2022-10-20T21:01:02.457Z,11.80
2022-10-20T21:04:10.191Z,10.43
2022-10-20T21:07:13.151Z,10.05
2022-10-20T21:10:15.833Z,10.55
2022-10-20T21:13:18.654Z,9.68
2022-10-20T21:16:35.673Z,12.67
2022-10-20T21:19:38.476Z,10.20
2022-10-20T21:22:41.036Z,11.98
2022-10-20T21:25:46.217Z,9.32
2022-10-20T21:28:49.516Z,10.32
2022-10-20T21:31:52.584Z,9.40
2022-10-20T21:34:57.911Z,10.35
2022-10-20T21:38:00.881Z,10.35
2022-10-20T21:41:15.503Z,10.05
2022-10-20T21:44:18.427Z,11.27
2022-10-20T21:47:20.994Z,10.40
2022-10-20T21:50:23.976Z,10.40
2022-10-20T21:53:26.425Z,10.75
2022-10-20T21:56:29.773Z,9.93
2022-10-20T21:59:32.336Z,8.63
2022-10-20T22:02:35.651Z,10.83
2022-10-20T22:05:38.620Z,12.00
2022-10-20T22:08:43.980Z,11.20
2022-10-20T22:11:50.905Z,13.73
2022-10-20T22:14:53.438Z,10.60
2022-10-20T22:17:56.410Z,12.57
2022-10-20T22:21:09.817Z,11.68
2022-10-20T22:24:16.329Z,14.63
2022-10-20T22:27:31.340Z,11.85
2022-10-20T22:30:41.691Z,13.00
2022-10-20T22:33:44.293Z,9.67
2022-10-20T22:36:47.284Z,10.35
2022-10-20T22:39:50.043Z,16.00
2022-10-20T22:42:52.905Z,11.93
2022-10-20T22:45:55.382Z,11.65
2022-10-20T22:52:01.690Z,11.20
2022-10-20T22:55:06.923Z,12.07
2022-10-20T22:58:09.459Z,11.12
2022-10-20T23:01:18.752Z,10.05
2022-10-20T23:04:21.423Z,10.17
2022-10-20T23:07:24.527Z,9.77
2022-10-20T23:10:27.454Z,8.43
2022-10-20T23:13:30.304Z,9.85
2022-10-20T23:16:32.816Z,12.43
2022-10-20T23:19:35.687Z,11.93
2022-10-20T23:22:38.212Z,9.77
2022-10-20T23:25:42.309Z,12.75
2022-10-20T23:28:44.899Z,13.98
2022-10-20T23:31:47.724Z,13.05
2022-10-20T23:34:50.196Z,14.77
2022-10-20T23:37:52.980Z,14.80
2022-10-20T23:40:55.761Z,13.90
2022-10-20T23:43:58.630Z,13.15
2022-10-20T23:47:01.183Z,11.82
2022-10-20T23:50:04.655Z,15.70
2022-10-20T23:53:07.228Z,12.13
2022-10-20T23:56:10.043Z,15.38
2022-10-20T23:59:12.583Z,16.75
